createdAt,value
2017-11-07T00:01:42.584Z,7.80
2017-11-07T00:04:10.074Z,7.90
2017-11-07T00:06:37.344Z,7.80
2017-11-07T00:09:04.099Z,7.90
2017-11-07T00:11:31.183Z,7.90
2017-11-07T00:13:59.171Z,8.00
2017-11-07T00:16:27.190Z,7.90
2017-11-07T00:18:53.781Z,8.00
2017-11-07T00:21:20.907Z,8.00
2017-11-07T00:23:47.860Z,7.90
2017-11-07T00:26:14.836Z,7.90
2017-11-07T00:28:41.336Z,7.90
2017-11-07T00:31:08.620Z,8.00
2017-11-07T00:33:35.661Z,7.90
2017-11-07T00:36:01.952Z,7.90
2017-11-07T00:38:28.183Z,7.90
2017-11-07T00:40:55.282Z,8.00
2017-11-07T00:43:21.486Z,7.90
2017-11-07T00:45:47.708Z,8.00
2017-11-07T00:48:14.459Z,7.90
2017-11-07T00:50:41.802Z,7.90
2017-11-07T00:53:09.032Z,7.80
2017-11-07T00:55:36.136Z,7.90
2017-11-07T00:58:03.280Z,7.90
2017-11-07T01:00:30.045Z,7.90
2017-11-07T01:02:56.257Z,7.90
2017-11-07T01:07:56.153Z,8.00
2017-11-07T01:10:22.376Z,7.70
2017-11-07T01:12:49.482Z,7.80
2017-11-07T01:15:17.628Z,7.70
2017-11-07T01:17:44.365Z,7.70
2017-11-07T01:20:11.635Z,7.80
2017-11-07T01:22:38.399Z,7.80
2017-11-07T01:25:04.740Z,7.80
2017-11-07T01:27:33.337Z,8.00
2017-11-07T01:30:01.877Z,7.90
2017-11-07T01:32:28.851Z,7.90
2017-11-07T01:34:56.342Z,7.90
2017-11-07T01:37:22.614Z,7.80
2017-11-07T01:39:48.826Z,7.90
2017-11-07T01:42:16.193Z,7.90
2017-11-07T01:44:42.667Z,7.80
2017-11-07T01:47:10.366Z,7.80
2017-11-07T01:49:37.019Z,7.80
2017-11-07T01:52:04.633Z,7.80
2017-11-07T01:54:32.647Z,7.80
2017-11-07T01:57:04.573Z,7.80
2017-11-07T01:59:32.506Z,7.70
2017-11-07T02:01:58.724Z,7.80
2017-11-07T02:04:24.925Z,7.90
2017-11-07T02:06:51.232Z,7.80
2017-11-07T02:09:18.101Z,7.80
2017-11-07T02:11:44.563Z,7.80
2017-11-07T02:14:11.839Z,7.80
2017-11-07T02:16:39.725Z,7.90
2017-11-07T02:19:07.270Z,7.90
2017-11-07T02:21:33.870Z,7.90
2017-11-07T02:24:01.551Z,7.90
2017-11-07T02:26:29.019Z,7.90
2017-11-07T02:28:56.491Z,7.90
2017-11-07T02:31:23.529Z,7.90
2017-11-07T02:33:49.783Z,7.90
2017-11-07T02:36:16.070Z,7.90
2017-11-07T02:38:44.055Z,7.90
2017-11-07T02:41:10.603Z,7.90
2017-11-07T02:43:38.213Z,7.90
2017-11-07T02:46:05.456Z,7.90
2017-11-07T02:48:32.480Z,7.90
2017-11-07T02:50:59.719Z,8.00
2017-11-07T02:53:25.948Z,8.00
2017-11-07T02:55:53.177Z,8.00
2017-11-07T02:58:20.337Z,7.90
2017-11-07T03:00:47.591Z,8.00
2017-11-07T03:03:14.629Z,8.00
2017-11-07T03:05:41.404Z,8.00
2017-11-07T03:08:07.598Z,8.00
2017-11-07T03:10:34.527Z,8.10
2017-11-07T03:13:01.798Z,8.10
2017-11-07T03:15:29.978Z,8.20
2017-11-07T03:17:56.703Z,8.20
2017-11-07T03:20:23.054Z,8.30
2017-11-07T03:22:49.887Z,8.30
2017-11-07T03:25:16.086Z,8.30
2017-11-07T03:27:43.188Z,8.40
2017-11-07T03:30:09.967Z,8.40
2017-11-07T03:32:37.583Z,8.40
2017-11-07T03:35:03.836Z,8.40
2017-11-07T03:37:30.940Z,8.40
2017-11-07T03:39:57.733Z,8.40
2017-11-07T03:42:24.449Z,8.40
2017-11-07T03:44:51.050Z,8.30
2017-11-07T03:47:18.140Z,8.40
2017-11-07T03:52:37.993Z,8.40
2017-11-07T03:55:04.204Z,8.50
2017-11-07T03:57:31.263Z,8.40
2017-11-07T03:59:58.056Z,8.40
2017-11-07T04:02:24.284Z,8.40
2017-11-07T04:04:50.472Z,8.40
2017-11-07T04:07:16.866Z,8.50
2017-11-07T04:09:43.648Z,8.50
2017-11-07T04:12:09.895Z,8.50
2017-11-07T04:14:36.658Z,8.50
2017-11-07T04:17:03.539Z,8.50
2017-11-07T04:19:31.173Z,8.60
2017-11-07T04:21:57.957Z,8.60
2017-11-07T04:24:24.726Z,8.50
2017-11-07T04:26:51.492Z,8.50
2017-11-07T04:29:17.722Z,8.50
2017-11-07T04:31:43.955Z,8.60
2017-11-07T04:34:10.469Z,8.60
2017-11-07T04:36:38.135Z,8.60
2017-11-07T04:39:04.348Z,8.60
2017-11-07T04:41:30.935Z,8.60
2017-11-07T04:43:57.890Z,8.60
2017-11-07T04:46:24.381Z,8.60
2017-11-07T04:48:51.816Z,8.50
2017-11-07T04:51:19.365Z,8.60
2017-11-07T04:53:45.637Z,8.50
2017-11-07T04:56:11.866Z,8.50
2017-11-07T04:58:38.615Z,8.50
2017-11-07T05:01:06.658Z,8.30
2017-11-07T05:03:33.470Z,8.30
2017-11-07T05:06:01.038Z,8.30
2017-11-07T05:18:13.454Z,8.30
2017-11-07T05:20:41.394Z,8.10
2017-11-07T05:23:08.633Z,8.10
2017-11-07T05:25:34.872Z,8.10
2017-11-07T05:28:02.097Z,8.20
2017-11-07T05:30:29.040Z,8.10
2017-11-07T05:32:55.527Z,8.10
2017-11-07T05:35:22.499Z,8.10
2017-11-07T05:37:48.701Z,8.10
2017-11-07T05:40:16.730Z,8.30
2017-11-07T05:42:44.645Z,8.40
2017-11-07T05:45:12.490Z,8.30
2017-11-07T05:47:39.492Z,8.30
2017-11-07T05:50:05.731Z,8.30
2017-11-07T05:52:32.034Z,8.30
2017-11-07T05:54:58.471Z,8.40
2017-11-07T05:57:24.720Z,8.40
2017-11-07T05:59:50.927Z,8.30
2017-11-07T06:02:17.271Z,8.20
2017-11-07T06:04:43.489Z,8.30
2017-11-07T06:07:11.149Z,8.30
2017-11-07T06:09:37.414Z,8.30
2017-11-07T06:12:05.206Z,8.30
2017-11-07T06:14:31.552Z,8.30
2017-11-07T06:16:59.171Z,8.40
2017-11-07T06:19:25.767Z,8.40
2017-11-07T06:21:52.932Z,8.50
2017-11-07T06:24:19.160Z,8.40
2017-11-07T06:26:45.403Z,8.50
2017-11-07T06:29:12.521Z,8.50
2017-11-07T06:31:39.239Z,8.50
2017-11-07T06:34:06.255Z,8.50
2017-11-07T06:36:33.265Z,8.50
2017-11-07T06:39:00.000Z,8.60
2017-11-07T06:41:26.201Z,8.50
2017-11-07T06:43:53.730Z,8.50
2017-11-07T06:46:20.693Z,8.50
2017-11-07T06:48:47.286Z,8.40
2017-11-07T06:51:15.529Z,8.50
2017-11-07T06:53:42.419Z,8.40
2017-11-07T06:56:09.048Z,8.50
2017-11-07T06:58:35.276Z,8.50
2017-11-07T07:01:02.080Z,8.60
2017-11-07T07:03:29.758Z,8.80
2017-11-07T07:05:56.112Z,8.70
2017-11-07T07:08:22.739Z,8.80
2017-11-07T07:10:50.864Z,8.80
2017-11-07T07:13:18.657Z,8.80
2017-11-07T07:15:45.450Z,8.80
2017-11-07T07:18:11.776Z,8.90
2017-11-07T07:20:38.712Z,8.90
2017-11-07T07:23:04.938Z,9.00
2017-11-07T07:25:31.991Z,9.10
2017-11-07T07:27:58.204Z,9.10
2017-11-07T07:30:25.430Z,9.10
2017-11-07T07:32:52.159Z,9.20
2017-11-07T07:35:19.199Z,9.40
2017-11-07T07:37:45.444Z,9.40
2017-11-07T07:40:12.647Z,9.40
2017-11-07T07:42:38.851Z,9.60
2017-11-07T07:45:05.540Z,9.60
2017-11-07T07:47:32.355Z,9.70
2017-11-07T07:49:58.599Z,9.70
2017-11-07T07:52:26.152Z,9.80
2017-11-07T07:54:53.912Z,9.90
2017-11-07T07:57:20.857Z,10.10
2017-11-07T07:59:49.069Z,10.40
2017-11-07T08:02:16.751Z,10.30
2017-11-07T08:04:43.926Z,10.70
2017-11-07T08:07:10.715Z,10.70
2017-11-07T08:09:38.232Z,10.70
2017-11-07T08:12:05.949Z,10.80
2017-11-07T08:14:32.259Z,10.80
2017-11-07T08:16:59.627Z,10.80
2017-11-07T08:19:26.877Z,10.90
2017-11-07T08:21:54.463Z,10.90
2017-11-07T08:24:20.707Z,10.90
2017-11-07T08:26:47.294Z,10.90
2017-11-07T08:29:14.346Z,11.00
2017-11-07T08:31:40.584Z,11.00
2017-11-07T08:34:07.448Z,11.00
2017-11-07T08:36:35.707Z,11.00
2017-11-07T08:39:03.571Z,10.90
2017-11-07T08:41:31.174Z,10.90
2017-11-07T08:43:57.584Z,10.90
2017-11-07T08:46:24.400Z,10.90
2017-11-07T08:48:50.609Z,10.90
2017-11-07T08:51:17.088Z,11.10
2017-11-07T08:53:44.519Z,11.30
2017-11-07T08:56:11.327Z,11.40
2017-11-07T08:58:38.943Z,11.30
2017-11-07T09:01:05.748Z,11.50
2017-11-07T09:03:32.493Z,11.70
2017-11-07T09:05:59.575Z,11.90
2017-11-07T09:08:26.293Z,11.90
2017-11-07T09:10:54.326Z,11.90
2017-11-07T09:13:28.396Z,11.90
2017-11-07T09:15:56.474Z,11.90
2017-11-07T09:18:22.984Z,11.90
2017-11-07T09:20:49.862Z,11.90
2017-11-07T09:23:16.314Z,12.00
2017-11-07T09:25:43.429Z,12.20
2017-11-07T09:28:10.559Z,12.20
2017-11-07T09:30:37.819Z,12.20
2017-11-07T09:33:05.441Z,12.40
2017-11-07T09:35:31.667Z,12.40
2017-11-07T09:37:59.326Z,12.30
2017-11-07T09:40:26.891Z,12.40
2017-11-07T09:42:53.678Z,12.40
2017-11-07T09:45:20.023Z,12.50
2017-11-07T09:47:46.260Z,12.50
2017-11-07T09:50:13.565Z,12.60
2017-11-07T09:52:41.071Z,12.60
2017-11-07T09:55:09.138Z,12.60
2017-11-07T10:00:10.898Z,12.60
2017-11-07T10:02:37.123Z,12.70
2017-11-07T10:05:04.783Z,12.70
2017-11-07T10:07:31.399Z,12.80
2017-11-07T10:09:58.431Z,12.90
2017-11-07T10:12:26.208Z,12.90
2017-11-07T10:14:52.909Z,12.90
2017-11-07T10:17:19.188Z,13.00
2017-11-07T10:19:45.443Z,13.20
2017-11-07T10:22:14.358Z,13.30
2017-11-07T10:24:41.294Z,13.30
2017-11-07T10:27:08.984Z,13.20
2017-11-07T10:29:36.754Z,13.30
2017-11-07T10:32:02.995Z,13.30
2017-11-07T10:34:29.248Z,13.60
2017-11-07T10:36:55.579Z,13.50
2017-11-07T10:39:21.921Z,13.10
2017-11-07T10:41:48.926Z,13.00
2017-11-07T10:44:16.783Z,13.00
2017-11-07T10:46:44.017Z,12.90
2017-11-07T10:49:10.495Z,13.00
2017-11-07T10:51:37.921Z,13.00
2017-11-07T10:54:04.158Z,13.00
2017-11-07T10:56:31.131Z,13.10
2017-11-07T10:58:58.612Z,13.20
2017-11-07T11:01:26.282Z,13.20
2017-11-07T11:03:53.663Z,13.30
2017-11-07T11:06:21.224Z,13.20
2017-11-07T11:08:48.586Z,13.10
2017-11-07T11:11:15.307Z,13.30
2017-11-07T11:13:41.574Z,13.40
2017-11-07T11:16:07.786Z,13.40
2017-11-07T11:18:34.649Z,13.30
2017-11-07T11:21:01.281Z,13.50
2017-11-07T11:23:27.516Z,13.60
2017-11-07T11:25:53.733Z,13.60
2017-11-07T11:28:20.500Z,13.70
2017-11-07T11:30:47.484Z,14.10
2017-11-07T11:33:15.254Z,14.00
2017-11-07T11:35:41.523Z,14.00
2017-11-07T11:38:08.586Z,14.10
2017-11-07T11:40:34.868Z,14.20
2017-11-07T11:43:01.722Z,14.30
2017-11-07T11:45:27.949Z,14.10
2017-11-07T11:47:55.183Z,13.90
2017-11-07T11:50:22.018Z,13.80
2017-11-07T11:52:48.397Z,13.80
2017-11-07T11:55:15.306Z,13.70
2017-11-07T11:57:41.902Z,13.60
2017-11-07T12:00:08.517Z,13.70
2017-11-07T12:02:35.240Z,13.90
2017-11-07T12:05:02.120Z,14.10
2017-11-07T12:07:29.769Z,14.20
2017-11-07T12:09:56.059Z,14.10
2017-11-07T12:12:23.304Z,14.10
2017-11-07T12:14:50.664Z,14.00
2017-11-07T12:17:17.514Z,14.00
2017-11-07T12:19:44.860Z,13.90
2017-11-07T12:22:11.101Z,13.60
2017-11-07T12:24:37.970Z,13.30
2017-11-07T12:27:04.457Z,13.50
2017-11-07T12:29:31.325Z,13.70
2017-11-07T12:31:57.567Z,13.80
2017-11-07T12:34:23.900Z,14.00
2017-11-07T12:36:51.251Z,14.20
2017-11-07T12:39:18.518Z,14.10
2017-11-07T12:41:46.237Z,14.20
2017-11-07T12:44:12.569Z,13.60
2017-11-07T12:46:38.802Z,13.40
2017-11-07T12:49:05.028Z,13.50
2017-11-07T12:51:38.486Z,13.50
2017-11-07T12:54:04.711Z,13.50
2017-11-07T12:56:30.935Z,13.50
2017-11-07T12:58:58.929Z,13.70
2017-11-07T13:01:26.948Z,13.70
2017-11-07T13:03:53.219Z,13.50
2017-11-07T13:06:20.179Z,13.20
2017-11-07T13:08:46.433Z,13.00
2017-11-07T13:11:13.573Z,12.90
2017-11-07T13:13:40.177Z,13.00
2017-11-07T13:16:06.812Z,12.90
2017-11-07T13:18:33.041Z,12.80
2017-11-07T13:20:59.824Z,12.60
2017-11-07T13:23:26.929Z,12.50
2017-11-07T13:25:53.670Z,12.50
2017-11-07T13:28:20.413Z,12.60
2017-11-07T13:30:47.304Z,12.50
2017-11-07T13:33:14.050Z,12.60
2017-11-07T13:35:40.589Z,12.70
2017-11-07T13:38:08.134Z,12.50
2017-11-07T13:40:34.923Z,12.50
2017-11-07T13:43:01.378Z,12.60
2017-11-07T13:45:27.614Z,12.50
2017-11-07T13:47:53.832Z,12.40
2017-11-07T13:50:20.576Z,12.20
2017-11-07T13:52:47.356Z,12.20
2017-11-07T13:55:13.837Z,12.30
2017-11-07T13:57:40.267Z,12.30
2017-11-07T14:00:06.855Z,12.10
2017-11-07T14:02:33.055Z,12.20
2017-11-07T14:04:59.264Z,12.20
2017-11-07T14:07:25.722Z,12.30
2017-11-07T14:09:53.897Z,12.30
2017-11-07T14:12:21.351Z,12.50
2017-11-07T14:14:49.864Z,12.40
2017-11-07T14:17:17.432Z,12.40
2017-11-07T14:19:44.355Z,12.10
2017-11-07T14:22:11.759Z,12.00
2017-11-07T14:24:38.561Z,11.80
2017-11-07T14:27:05.085Z,11.80
2017-11-07T14:29:32.744Z,11.80
2017-11-07T14:31:58.985Z,11.90
2017-11-07T14:34:26.234Z,11.60
2017-11-07T14:36:52.460Z,11.50
2017-11-07T14:39:19.237Z,11.30
2017-11-07T14:41:46.003Z,11.40
2017-11-07T14:44:13.252Z,11.30
2017-11-07T14:46:40.938Z,11.10
2017-11-07T14:49:07.160Z,11.10
2017-11-07T14:51:34.027Z,11.10
2017-11-07T14:54:01.423Z,11.00
2017-11-07T14:56:30.104Z,11.00
2017-11-07T14:58:56.874Z,11.00
2017-11-07T15:01:24.114Z,11.00
2017-11-07T15:03:50.380Z,11.00
2017-11-07T15:06:17.251Z,11.10
2017-11-07T15:08:44.219Z,11.00
2017-11-07T15:11:11.141Z,11.00
2017-11-07T15:13:38.743Z,11.10
2017-11-07T15:16:05.567Z,11.10
2017-11-07T15:18:32.604Z,11.10
2017-11-07T15:20:59.430Z,11.10
2017-11-07T15:23:26.643Z,11.10
2017-11-07T15:25:53.675Z,11.00
2017-11-07T15:28:21.428Z,11.00
2017-11-07T15:30:47.652Z,11.00
2017-11-07T15:33:14.862Z,11.00
2017-11-07T15:35:41.630Z,11.00
2017-11-07T15:38:07.913Z,11.00
2017-11-07T15:40:34.596Z,11.00
2017-11-07T15:43:01.457Z,11.00
2017-11-07T15:45:27.692Z,11.00
2017-11-07T15:47:55.441Z,11.00
2017-11-07T15:50:21.674Z,11.00
2017-11-07T15:52:48.433Z,10.80
2017-11-07T15:55:14.707Z,10.80
2017-11-07T16:10:47.215Z,10.80
2017-11-07T16:13:13.671Z,10.50
2017-11-07T16:15:40.690Z,10.50
2017-11-07T16:18:07.012Z,10.40
2017-11-07T16:20:33.494Z,10.40
2017-11-07T16:23:01.001Z,10.60
2017-11-07T16:25:27.346Z,10.50
2017-11-07T16:27:53.663Z,10.40
2017-11-07T16:30:19.892Z,10.50
2017-11-07T16:32:46.990Z,10.40
2017-11-07T16:35:17.463Z,10.40
2017-11-07T16:37:44.498Z,10.40
2017-11-07T16:40:11.521Z,10.40
2017-11-07T16:42:39.195Z,10.50
2017-11-07T16:45:06.754Z,10.30
2017-11-07T16:47:34.244Z,10.40
2017-11-07T16:59:49.571Z,10.40
2017-11-07T17:02:15.856Z,10.00
2017-11-07T17:04:42.427Z,9.90
2017-11-07T17:07:09.528Z,9.90
2017-11-07T17:09:36.851Z,10.00
2017-11-07T17:12:04.019Z,9.90
2017-11-07T17:14:30.660Z,10.00
2017-11-07T17:16:58.198Z,10.00
2017-11-07T17:19:26.444Z,10.00
2017-11-07T17:21:53.551Z,10.00
2017-11-07T17:24:20.451Z,10.00
2017-11-07T17:26:46.813Z,10.00
2017-11-07T17:29:13.420Z,10.00
2017-11-07T17:31:39.736Z,10.00
2017-11-07T17:34:06.971Z,10.00
2017-11-07T17:36:34.948Z,10.00
2017-11-07T17:39:01.500Z,10.00
2017-11-07T17:41:28.743Z,10.00
2017-11-07T17:43:54.998Z,10.00
2017-11-07T17:46:21.463Z,10.00
2017-11-07T17:48:49.435Z,10.10
2017-11-07T17:51:16.392Z,10.10
2017-11-07T17:53:43.582Z,10.10
2017-11-07T17:56:10.751Z,10.10
2017-11-07T17:58:37.004Z,10.10
2017-11-07T18:01:03.970Z,10.20
2017-11-07T18:03:30.946Z,10.00
2017-11-07T18:05:57.233Z,10.00
2017-11-07T18:08:23.570Z,10.00
2017-11-07T18:10:50.356Z,9.90
2017-11-07T18:13:17.577Z,10.10
2017-11-07T18:15:45.075Z,10.10
2017-11-07T18:18:12.198Z,10.00
2017-11-07T18:20:39.120Z,10.00
2017-11-07T18:23:06.584Z,10.10
2017-11-07T18:25:34.555Z,10.10
2017-11-07T18:28:01.531Z,10.10
2017-11-07T18:30:28.090Z,10.00
2017-11-07T18:32:56.277Z,10.00
2017-11-07T18:35:24.402Z,9.90
2017-11-07T18:37:51.641Z,10.10
2017-11-07T18:40:19.209Z,10.10
2017-11-07T18:42:45.954Z,10.10
2017-11-07T18:45:13.065Z,10.20
2017-11-07T18:47:39.324Z,10.20
2017-11-07T18:50:05.618Z,10.20
2017-11-07T18:52:31.996Z,10.20
2017-11-07T18:54:59.362Z,10.10
2017-11-07T18:57:25.613Z,10.10
2017-11-07T18:59:52.871Z,10.10
2017-11-07T19:02:19.276Z,10.20
2017-11-07T19:04:46.967Z,10.20
2017-11-07T19:07:13.203Z,10.20
2017-11-07T19:09:40.784Z,10.00
2017-11-07T19:12:08.962Z,10.00
2017-11-07T19:14:36.962Z,10.00
2017-11-07T19:17:05.064Z,10.00
2017-11-07T19:19:31.826Z,10.00
2017-11-07T19:21:59.980Z,10.00
2017-11-07T19:24:27.642Z,10.00
2017-11-07T19:26:54.884Z,10.00
2017-11-07T19:29:21.449Z,10.00
2017-11-07T19:31:49.318Z,10.00
2017-11-07T19:34:16.680Z,10.00
2017-11-07T19:36:44.227Z,10.00
2017-11-07T19:39:10.607Z,10.00
2017-11-07T19:41:37.289Z,10.00
2017-11-07T19:44:04.959Z,10.00
2017-11-07T19:46:31.347Z,10.00
2017-11-07T19:48:59.522Z,10.00
2017-11-07T19:51:26.330Z,10.00
2017-11-07T19:53:52.852Z,9.90
2017-11-07T19:56:20.465Z,10.00
2017-11-07T19:58:46.724Z,9.90
2017-11-07T20:01:13.524Z,9.90
2017-11-07T20:03:39.795Z,10.00
2017-11-07T20:06:07.050Z,10.00
2017-11-07T20:08:33.801Z,10.00
2017-11-07T20:11:02.092Z,10.00
2017-11-07T20:13:29.197Z,10.00
2017-11-07T20:15:56.497Z,10.00
2017-11-07T20:18:24.515Z,9.90
2017-11-07T20:20:51.361Z,9.80
2017-11-07T20:23:18.579Z,9.80
2017-11-07T20:25:45.370Z,9.80
2017-11-07T20:28:11.853Z,9.80
2017-11-07T20:30:39.088Z,9.80
2017-11-07T20:33:05.319Z,9.80
2017-11-07T20:35:32.213Z,9.80
2017-11-07T20:37:58.861Z,9.80
2017-11-07T20:40:26.586Z,9.70
2017-11-07T20:42:54.239Z,9.70
2017-11-07T20:45:21.281Z,9.70
2017-11-07T20:47:48.049Z,9.70
2017-11-07T20:50:15.242Z,9.60
2017-11-07T20:52:42.224Z,9.40
2017-11-07T20:55:08.565Z,9.50
2017-11-07T20:57:35.202Z,9.50
2017-11-07T21:00:02.996Z,9.50
2017-11-07T21:02:30.044Z,9.50
2017-11-07T21:14:43.336Z,9.50
2017-11-07T21:17:10.882Z,9.20
2017-11-07T21:19:38.146Z,9.30
2017-11-07T21:22:05.841Z,9.30
2017-11-07T21:24:32.143Z,9.20
2017-11-07T21:26:58.349Z,9.20
2017-11-07T21:29:26.165Z,9.20
2017-11-07T21:31:53.656Z,9.20
2017-11-07T21:34:21.758Z,9.30
2017-11-07T21:36:49.316Z,9.30
2017-11-07T21:39:15.804Z,9.40
2017-11-07T21:41:42.045Z,9.30
2017-11-07T21:44:09.393Z,9.20
2017-11-07T21:46:36.284Z,9.30
2017-11-07T21:49:02.540Z,9.40
2017-11-07T21:51:29.760Z,9.40
2017-11-07T21:53:56.300Z,9.40
2017-11-07T21:56:23.494Z,9.50
2017-11-07T21:58:49.882Z,9.40
2017-11-07T22:01:16.740Z,9.40
2017-11-07T22:03:48.587Z,9.50
2017-11-07T22:06:15.533Z,9.50
2017-11-07T22:08:42.473Z,9.40
2017-11-07T22:11:08.688Z,9.40
2017-11-07T22:13:34.908Z,9.40
2017-11-07T22:16:02.015Z,9.50
2017-11-07T22:18:28.369Z,9.50
2017-11-07T22:20:55.739Z,9.50
2017-11-07T22:23:25.102Z,9.50
2017-11-07T22:25:53.084Z,9.40
2017-11-07T22:28:20.741Z,9.40
2017-11-07T22:30:48.473Z,9.30
2017-11-07T22:33:16.010Z,9.20
2017-11-07T22:35:42.756Z,9.20
2017-11-07T22:38:10.045Z,9.10
2017-11-07T22:40:36.279Z,9.10
2017-11-07T22:43:02.774Z,9.10
2017-11-07T22:45:29.744Z,9.10
2017-11-07T22:47:56.260Z,9.10
2017-11-07T22:50:24.429Z,9.00
2017-11-07T22:52:52.177Z,8.90
2017-11-07T22:55:19.306Z,8.90
2017-11-07T22:57:45.548Z,8.90
2017-11-07T23:00:12.349Z,8.80
2017-11-07T23:02:39.008Z,8.80
2017-11-07T23:05:06.769Z,8.60
2017-11-07T23:07:33.830Z,8.40
2017-11-07T23:10:00.337Z,8.40
2017-11-07T23:12:26.873Z,8.50
2017-11-07T23:14:53.121Z,8.60
2017-11-07T23:17:19.991Z,8.70
2017-11-07T23:19:46.476Z,8.60
2017-11-07T23:22:13.317Z,8.60
2017-11-07T23:24:39.796Z,8.40
2017-11-07T23:27:07.316Z,8.20
2017-11-07T23:29:34.128Z,8.20
2017-11-07T23:32:00.793Z,8.20
2017-11-07T23:34:27.259Z,8.10
2017-11-07T23:36:54.675Z,8.10
2017-11-07T23:39:21.114Z,8.10
2017-11-07T23:41:48.989Z,8.10
2017-11-07T23:44:16.732Z,8.10
2017-11-07T23:56:28.059Z,8.10
2017-11-07T23:58:56.409Z,7.80
